Terminal Aerodrome Forecast
Issued by NWS Wichita, KS

Home | Current Version | Previous Version | Graphics & Text | Print | Product List | Glossary On
Versions: 1 2 3 4 5 6 7 8 9 10 11 12
698
FTUS43 KICT 052335
TAFICT
TAF
KICT 052335Z 0600/0624 30007KT P6SM SCT120 BKN200
     FM060500 32006KT P6SM BKN140
     FM061700 27006KT P6SM FEW250
     FM062300 21008KT P6SM FEW250=

USA.gov is the U.S. government's official web portal to all federal, state and local government web resources and services.